sensor_id;sensor_type;location;lat;lon;timestamp;P1;durP1;ratioP1;P2;durP2;ratioP2
5195;SDS011;2617;51.006;12.436;2022-07-21T00:04:42;6.50;;;4.20;;
5195;SDS011;2617;51.006;12.436;2022-07-21T00:09:45;6.20;;;4.23;;
5195;SDS011;2617;51.006;12.436;2022-07-21T00:14:47;11.37;;;5.40;;
5195;SDS011;2617;51.006;12.436;2022-07-21T00:19:50;11.40;;;4.93;;
5195;SDS011;2617;51.006;12.436;2022-07-21T00:24:52;11.40;;;5.27;;
5195;SDS011;2617;51.006;12.436;2022-07-21T00:29:55;13.17;;;6.90;;
5195;SDS011;2617;51.006;12.436;2022-07-21T00:34:58;14.87;;;8.45;;
5195;SDS011;2617;51.006;12.436;2022-07-21T00:40:01;21.00;;;9.93;;
5195;SDS011;2617;51.006;12.436;2022-07-21T00:45:04;17.10;;;9.50;;
5195;SDS011;2617;51.006;12.436;2022-07-21T00:50:08;18.40;;;10.27;;
5195;SDS011;2617;51.006;12.436;2022-07-21T00:55:11;18.47;;;7.83;;
5195;SDS011;2617;51.006;12.436;2022-07-21T01:00:14;13.27;;;7.67;;
5195;SDS011;2617;51.006;12.436;2022-07-21T01:05:16;9.13;;;8.00;;
5195;SDS011;2617;51.006;12.436;2022-07-21T01:10:19;13.30;;;8.07;;
5195;SDS011;2617;51.006;12.436;2022-07-21T01:15:21;12.37;;;6.57;;
5195;SDS011;2617;51.006;12.436;2022-07-21T01:20:23;12.27;;;6.40;;
5195;SDS011;2617;51.006;12.436;2022-07-21T01:25:26;8.00;;;6.33;;
5195;SDS011;2617;51.006;12.436;2022-07-21T01:30:29;9.30;;;6.00;;
5195;SDS011;2617;51.006;12.436;2022-07-21T01:35:33;5.17;;;4.77;;
5195;SDS011;2617;51.006;12.436;2022-07-21T01:40:35;6.77;;;5.00;;
5195;SDS011;2617;51.006;12.436;2022-07-21T01:45:43;6.17;;;5.17;;
5195;SDS011;2617;51.006;12.436;2022-07-21T01:50:45;7.30;;;6.60;;
5195;SDS011;2617;51.006;12.436;2022-07-21T01:55:48;15.03;;;5.17;;
5195;SDS011;2617;51.006;12.436;2022-07-21T02:00:51;7.23;;;5.10;;
5195;SDS011;2617;51.006;12.436;2022-07-21T02:05:59;6.47;;;4.43;;
5195;SDS011;2617;51.006;12.436;2022-07-21T02:10:56;6.77;;;4.23;;
5195;SDS011;2617;51.006;12.436;2022-07-21T02:15:59;5.90;;;4.20;;
5195;SDS011;2617;51.006;12.436;2022-07-21T02:21:02;4.63;;;3.90;;
5195;SDS011;2617;51.006;12.436;2022-07-21T02:26:04;8.45;;;4.75;;
5195;SDS011;2617;51.006;12.436;2022-07-21T02:31:07;4.68;;;4.25;;
5195;SDS011;2617;51.006;12.436;2022-07-21T02:36:09;7.73;;;5.07;;
5195;SDS011;2617;51.006;12.436;2022-07-21T02:41:12;11.60;;;5.20;;
5195;SDS011;2617;51.006;12.436;2022-07-21T02:46:14;11.73;;;4.55;;
5195;SDS011;2617;51.006;12.436;2022-07-21T02:51:18;6.62;;;4.28;;
5195;SDS011;2617;51.006;12.436;2022-07-21T02:56:20;4.77;;;4.27;;
5195;SDS011;2617;51.006;12.436;2022-07-21T03:01:22;5.60;;;4.60;;
5195;SDS011;2617;51.006;12.436;2022-07-21T03:06:26;8.60;;;4.90;;
5195;SDS011;2617;51.006;12.436;2022-07-21T03:11:28;9.33;;;4.47;;
5195;SDS011;2617;51.006;12.436;2022-07-21T03:16:31;4.33;;;3.83;;
5195;SDS011;2617;51.006;12.436;2022-07-21T03:21:33;5.63;;;4.27;;
5195;SDS011;2617;51.006;12.436;2022-07-21T03:26:36;6.32;;;4.42;;
5195;SDS011;2617;51.006;12.436;2022-07-21T03:31:39;4.35;;;3.95;;
5195;SDS011;2617;51.006;12.436;2022-07-21T03:36:41;4.95;;;4.15;;
5195;SDS011;2617;51.006;12.436;2022-07-21T03:41:44;3.70;;;3.40;;
5195;SDS011;2617;51.006;12.436;2022-07-21T03:46:46;5.10;;;3.87;;
5195;SDS011;2617;51.006;12.436;2022-07-21T03:51:48;5.40;;;4.00;;
5195;SDS011;2617;51.006;12.436;2022-07-21T03:56:51;5.03;;;3.60;;
5195;SDS011;2617;51.006;12.436;2022-07-21T04:01:53;4.10;;;3.80;;
5195;SDS011;2617;51.006;12.436;2022-07-21T04:06:56;4.10;;;3.47;;
5195;SDS011;2617;51.006;12.436;2022-07-21T04:11:58;4.45;;;3.83;;
5195;SDS011;2617;51.006;12.436;2022-07-21T04:17:01;4.47;;;3.55;;
5195;SDS011;2617;51.006;12.436;2022-07-21T04:22:04;6.50;;;3.53;;
5195;SDS011;2617;51.006;12.436;2022-07-21T04:27:06;6.05;;;3.40;;
5195;SDS011;2617;51.006;12.436;2022-07-21T04:32:09;4.10;;;3.70;;
5195;SDS011;2617;51.006;12.436;2022-07-21T04:37:12;6.20;;;3.37;;
5195;SDS011;2617;51.006;12.436;2022-07-21T04:42:15;3.53;;;3.10;;
5195;SDS011;2617;51.006;12.436;2022-07-21T04:47:18;4.25;;;3.30;;
5195;SDS011;2617;51.006;12.436;2022-07-21T04:52:22;5.83;;;3.43;;
5195;SDS011;2617;51.006;12.436;2022-07-21T04:57:25;4.73;;;3.43;;
5195;SDS011;2617;51.006;12.436;2022-07-21T05:02:28;4.00;;;3.50;;
5195;SDS011;2617;51.006;12.436;2022-07-21T05:07:31;4.00;;;3.00;;
5195;SDS011;2617;51.006;12.436;2022-07-21T05:12:34;6.60;;;4.10;;
5195;SDS011;2617;51.006;12.436;2022-07-21T05:17:36;6.90;;;4.05;;
5195;SDS011;2617;51.006;12.436;2022-07-21T05:22:39;4.55;;;3.67;;
5195;SDS011;2617;51.006;12.436;2022-07-21T05:27:42;7.45;;;5.18;;
5195;SDS011;2617;51.006;12.436;2022-07-21T05:32:45;5.12;;;4.07;;
5195;SDS011;2617;51.006;12.436;2022-07-21T05:37:48;10.98;;;4.28;;
5195;SDS011;2617;51.006;12.436;2022-07-21T05:42:50;15.60;;;4.07;;
5195;SDS011;2617;51.006;12.436;2022-07-21T05:47:53;5.10;;;3.93;;
5195;SDS011;2617;51.006;12.436;2022-07-21T05:52:55;5.53;;;4.60;;
5195;SDS011;2617;51.006;12.436;2022-07-21T05:57:58;6.23;;;4.50;;
5195;SDS011;2617;51.006;12.436;2022-07-21T06:03:01;3.87;;;3.47;;
5195;SDS011;2617;51.006;12.436;2022-07-21T06:08:03;4.30;;;3.90;;
5195;SDS011;2617;51.006;12.436;2022-07-21T06:13:06;5.50;;;4.17;;
5195;SDS011;2617;51.006;12.436;2022-07-21T06:18:08;5.80;;;4.67;;
5195;SDS011;2617;51.006;12.436;2022-07-21T06:23:11;7.90;;;5.00;;
5195;SDS011;2617;51.006;12.436;2022-07-21T06:28:14;5.60;;;5.07;;
5195;SDS011;2617;51.006;12.436;2022-07-21T06:33:16;9.97;;;5.70;;
5195;SDS011;2617;51.006;12.436;2022-07-21T06:38:19;8.17;;;4.70;;
5195;SDS011;2617;51.006;12.436;2022-07-21T06:43:22;5.00;;;4.43;;
5195;SDS011;2617;51.006;12.436;2022-07-21T06:48:25;6.47;;;4.70;;
5195;SDS011;2617;51.006;12.436;2022-07-21T06:53:27;9.10;;;5.20;;
5195;SDS011;2617;51.006;12.436;2022-07-21T06:58:29;8.53;;;4.47;;
5195;SDS011;2617;51.006;12.436;2022-07-21T07:03:32;5.27;;;4.77;;
5195;SDS011;2617;51.006;12.436;2022-07-21T07:08:34;5.57;;;5.07;;
5195;SDS011;2617;51.006;12.436;2022-07-21T07:13:38;9.13;;;5.17;;
5195;SDS011;2617;51.006;12.436;2022-07-21T07:18:40;8.32;;;5.78;;
5195;SDS011;2617;51.006;12.436;2022-07-21T07:23:42;6.72;;;6.03;;
5195;SDS011;2617;51.006;12.436;2022-07-21T07:28:45;7.30;;;5.17;;
5195;SDS011;2617;51.006;12.436;2022-07-21T07:33:47;6.17;;;5.57;;
5195;SDS011;2617;51.006;12.436;2022-07-21T07:38:51;7.85;;;6.25;;
5195;SDS011;2617;51.006;12.436;2022-07-21T07:43:53;6.47;;;5.87;;
5195;SDS011;2617;51.006;12.436;2022-07-21T07:48:55;10.10;;;6.33;;
5195;SDS011;2617;51.006;12.436;2022-07-21T07:53:58;7.83;;;6.10;;
5195;SDS011;2617;51.006;12.436;2022-07-21T07:59:00;4.37;;;3.80;;
5195;SDS011;2617;51.006;12.436;2022-07-21T08:04:04;4.54;;;4.14;;
5195;SDS011;2617;51.006;12.436;2022-07-21T08:09:08;6.87;;;5.13;;
5195;SDS011;2617;51.006;12.436;2022-07-21T08:14:10;6.50;;;5.33;;
5195;SDS011;2617;51.006;12.436;2022-07-21T08:19:12;5.27;;;4.60;;
5195;SDS011;2617;51.006;12.436;2022-07-21T08:24:15;6.47;;;5.47;;
5195;SDS011;2617;51.006;12.436;2022-07-21T08:29:17;5.87;;;4.82;;
5195;SDS011;2617;51.006;12.436;2022-07-21T08:34:20;4.97;;;4.53;;
5195;SDS011;2617;51.006;12.436;2022-07-21T08:39:23;5.00;;;4.60;;
5195;SDS011;2617;51.006;12.436;2022-07-21T08:44:26;6.40;;;5.10;;
5195;SDS011;2617;51.006;12.436;2022-07-21T08:49:28;7.23;;;5.30;;
5195;SDS011;2617;51.006;12.436;2022-07-21T08:54:31;6.77;;;5.20;;
5195;SDS011;2617;51.006;12.436;2022-07-21T08:59:34;6.93;;;5.73;;
5195;SDS011;2617;51.006;12.436;2022-07-21T09:04:36;6.90;;;5.67;;
5195;SDS011;2617;51.006;12.436;2022-07-21T09:09:39;8.37;;;6.37;;
5195;SDS011;2617;51.006;12.436;2022-07-21T09:14:41;7.70;;;6.90;;
5195;SDS011;2617;51.006;12.436;2022-07-21T09:19:45;8.20;;;7.27;;
5195;SDS011;2617;51.006;12.436;2022-07-21T09:24:49;7.33;;;6.63;;
5195;SDS011;2617;51.006;12.436;2022-07-21T09:29:52;8.50;;;7.47;;
5195;SDS011;2617;51.006;12.436;2022-07-21T09:35:00;8.83;;;7.87;;
5195;SDS011;2617;51.006;12.436;2022-07-21T09:40:11;9.53;;;7.03;;
5195;SDS011;2617;51.006;12.436;2022-07-21T09:45:14;8.33;;;7.53;;
5195;SDS011;2617;51.006;12.436;2022-07-21T09:50:16;9.00;;;8.03;;
5195;SDS011;2617;51.006;12.436;2022-07-21T09:55:18;13.93;;;8.20;;
5195;SDS011;2617;51.006;12.436;2022-07-21T10:00:21;8.63;;;7.62;;
5195;SDS011;2617;51.006;12.436;2022-07-21T10:05:24;9.40;;;8.50;;
5195;SDS011;2617;51.006;12.436;2022-07-21T10:10:27;9.13;;;8.07;;
5195;SDS011;2617;51.006;12.436;2022-07-21T10:15:31;10.80;;;8.27;;
5195;SDS011;2617;51.006;12.436;2022-07-21T10:20:34;13.20;;;8.30;;
5195;SDS011;2617;51.006;12.436;2022-07-21T10:25:36;11.73;;;8.30;;
5195;SDS011;2617;51.006;12.436;2022-07-21T10:30:41;10.03;;;9.00;;
5195;SDS011;2617;51.006;12.436;2022-07-21T10:35:45;10.57;;;8.57;;
5195;SDS011;2617;51.006;12.436;2022-07-21T10:40:47;9.30;;;7.70;;
5195;SDS011;2617;51.006;12.436;2022-07-21T10:45:50;12.80;;;7.90;;
5195;SDS011;2617;51.006;12.436;2022-07-21T10:50:52;9.20;;;8.20;;
5195;SDS011;2617;51.006;12.436;2022-07-21T10:55:55;9.60;;;8.63;;
5195;SDS011;2617;51.006;12.436;2022-07-21T11:00:58;12.07;;;9.60;;
5195;SDS011;2617;51.006;12.436;2022-07-21T11:06:11;11.40;;;9.13;;
5195;SDS011;2617;51.006;12.436;2022-07-21T11:11:14;12.77;;;9.30;;
5195;SDS011;2617;51.006;12.436;2022-07-21T11:16:15;9.32;;;8.43;;
5195;SDS011;2617;51.006;12.436;2022-07-21T11:21:19;9.80;;;8.90;;
5195;SDS011;2617;51.006;12.436;2022-07-21T11:26:23;14.17;;;9.60;;
5195;SDS011;2617;51.006;12.436;2022-07-21T11:31:25;10.37;;;8.60;;
5195;SDS011;2617;51.006;12.436;2022-07-21T11:36:29;9.50;;;8.60;;
5195;SDS011;2617;51.006;12.436;2022-07-21T11:41:30;10.23;;;8.80;;
5195;SDS011;2617;51.006;12.436;2022-07-21T11:51:48;10.30;;;9.30;;
5195;SDS011;2617;51.006;12.436;2022-07-21T11:56:55;11.80;;;8.67;;
5195;SDS011;2617;51.006;12.436;2022-07-21T12:02:01;10.00;;;8.33;;
5195;SDS011;2617;51.006;12.436;2022-07-21T12:07:11;11.17;;;9.10;;
5195;SDS011;2617;51.006;12.436;2022-07-21T12:12:12;9.85;;;8.63;;
5195;SDS011;2617;51.006;12.436;2022-07-21T12:17:16;10.77;;;9.67;;
5195;SDS011;2617;51.006;12.436;2022-07-21T12:22:17;12.77;;;8.35;;
5195;SDS011;2617;51.006;12.436;2022-07-21T12:27:20;9.07;;;8.25;;
5195;SDS011;2617;51.006;12.436;2022-07-21T12:48:12;10.00;;;8.40;;
5195;SDS011;2617;51.006;12.436;2022-07-21T12:53:14;10.60;;;8.80;;
5195;SDS011;2617;51.006;12.436;2022-07-21T12:58:17;9.52;;;8.20;;
5195;SDS011;2617;51.006;12.436;2022-07-21T13:03:19;10.80;;;8.73;;
5195;SDS011;2617;51.006;12.436;2022-07-21T13:08:22;9.87;;;8.87;;
5195;SDS011;2617;51.006;12.436;2022-07-21T13:13:24;17.23;;;8.85;;
5195;SDS011;2617;51.006;12.436;2022-07-21T13:18:27;10.07;;;9.00;;
5195;SDS011;2617;51.006;12.436;2022-07-21T13:23:30;9.40;;;8.40;;
5195;SDS011;2617;51.006;12.436;2022-07-21T13:28:33;9.90;;;9.00;;
5195;SDS011;2617;51.006;12.436;2022-07-21T13:33:36;10.07;;;8.90;;
5195;SDS011;2617;51.006;12.436;2022-07-21T13:38:38;9.15;;;8.35;;
5195;SDS011;2617;51.006;12.436;2022-07-21T13:43:41;9.23;;;8.27;;
5195;SDS011;2617;51.006;12.436;2022-07-21T13:48:44;9.95;;;8.95;;
5195;SDS011;2617;51.006;12.436;2022-07-21T13:53:47;9.07;;;8.27;;
5195;SDS011;2617;51.006;12.436;2022-07-21T13:58:48;9.17;;;8.27;;
5195;SDS011;2617;51.006;12.436;2022-07-21T14:03:51;8.57;;;7.72;;
5195;SDS011;2617;51.006;12.436;2022-07-21T14:08:54;9.50;;;7.05;;
5195;SDS011;2617;51.006;12.436;2022-07-21T14:13:57;5.82;;;5.00;;
5195;SDS011;2617;51.006;12.436;2022-07-21T14:19:00;6.43;;;5.77;;
5195;SDS011;2617;51.006;12.436;2022-07-21T14:24:02;3.23;;;2.97;;
5195;SDS011;2617;51.006;12.436;2022-07-21T14:29:11;2.83;;;2.63;;
5195;SDS011;2617;51.006;12.436;2022-07-21T14:34:15;3.58;;;2.83;;
5195;SDS011;2617;51.006;12.436;2022-07-21T14:39:18;3.97;;;2.90;;
5195;SDS011;2617;51.006;12.436;2022-07-21T14:44:19;3.57;;;2.83;;
5195;SDS011;2617;51.006;12.436;2022-07-21T14:49:23;3.58;;;2.80;;
5195;SDS011;2617;51.006;12.436;2022-07-21T14:54:25;3.03;;;2.78;;
5195;SDS011;2617;51.006;12.436;2022-07-21T14:59:28;3.00;;;2.70;;
5195;SDS011;2617;51.006;12.436;2022-07-21T15:04:30;3.57;;;2.53;;
5195;SDS011;2617;51.006;12.436;2022-07-21T15:09:33;6.30;;;2.75;;
5195;SDS011;2617;51.006;12.436;2022-07-21T15:14:36;4.00;;;2.80;;
5195;SDS011;2617;51.006;12.436;2022-07-21T15:19:39;2.20;;;2.10;;
5195;SDS011;2617;51.006;12.436;2022-07-21T15:24:41;2.70;;;2.30;;
5195;SDS011;2617;51.006;12.436;2022-07-21T15:29:44;3.10;;;2.50;;
5195;SDS011;2617;51.006;12.436;2022-07-21T15:34:47;3.17;;;2.35;;
5195;SDS011;2617;51.006;12.436;2022-07-21T15:39:50;4.95;;;2.15;;
5195;SDS011;2617;51.006;12.436;2022-07-21T15:44:52;2.47;;;2.00;;
5195;SDS011;2617;51.006;12.436;2022-07-21T15:49:55;3.17;;;2.40;;
5195;SDS011;2617;51.006;12.436;2022-07-21T15:54:58;2.30;;;2.10;;
5195;SDS011;2617;51.006;12.436;2022-07-21T16:00:01;2.53;;;2.33;;
5195;SDS011;2617;51.006;12.436;2022-07-21T16:05:03;2.60;;;2.40;;
5195;SDS011;2617;51.006;12.436;2022-07-21T16:10:07;2.30;;;2.10;;
5195;SDS011;2617;51.006;12.436;2022-07-21T16:15:11;3.06;;;2.58;;
5195;SDS011;2617;51.006;12.436;2022-07-21T16:20:14;5.93;;;2.70;;
5195;SDS011;2617;51.006;12.436;2022-07-21T16:25:17;2.23;;;2.10;;
5195;SDS011;2617;51.006;12.436;2022-07-21T16:30:19;2.87;;;2.67;;
5195;SDS011;2617;51.006;12.436;2022-07-21T16:35:21;3.57;;;2.67;;
5195;SDS011;2617;51.006;12.436;2022-07-21T16:40:23;2.30;;;2.20;;
5195;SDS011;2617;51.006;12.436;2022-07-21T16:45:26;3.22;;;2.50;;
5195;SDS011;2617;51.006;12.436;2022-07-21T16:50:28;3.37;;;2.30;;
5195;SDS011;2617;51.006;12.436;2022-07-21T16:55:31;3.25;;;2.40;;
5195;SDS011;2617;51.006;12.436;2022-07-21T17:00:33;3.13;;;2.63;;
5195;SDS011;2617;51.006;12.436;2022-07-21T17:05:36;2.70;;;2.37;;
5195;SDS011;2617;51.006;12.436;2022-07-21T17:10:39;2.90;;;2.60;;
5195;SDS011;2617;51.006;12.436;2022-07-21T17:15:41;5.10;;;2.87;;
5195;SDS011;2617;51.006;12.436;2022-07-21T17:20:44;2.80;;;2.40;;
5195;SDS011;2617;51.006;12.436;2022-07-21T17:25:46;3.83;;;2.47;;
5195;SDS011;2617;51.006;12.436;2022-07-21T17:30:49;2.47;;;2.22;;
5195;SDS011;2617;51.006;12.436;2022-07-21T17:35:51;2.90;;;2.50;;
5195;SDS011;2617;51.006;12.436;2022-07-21T17:40:54;4.15;;;2.67;;
5195;SDS011;2617;51.006;12.436;2022-07-21T17:45:58;3.40;;;3.05;;
5195;SDS011;2617;51.006;12.436;2022-07-21T17:51:00;4.63;;;3.00;;
5195;SDS011;2617;51.006;12.436;2022-07-21T17:56:04;2.80;;;2.50;;
5195;SDS011;2617;51.006;12.436;2022-07-21T18:01:06;3.43;;;2.37;;
5195;SDS011;2617;51.006;12.436;2022-07-21T18:06:09;2.80;;;2.60;;
5195;SDS011;2617;51.006;12.436;2022-07-21T18:11:12;3.45;;;2.58;;
5195;SDS011;2617;51.006;12.436;2022-07-21T18:16:15;2.60;;;2.40;;
5195;SDS011;2617;51.006;12.436;2022-07-21T18:21:18;4.93;;;2.47;;
5195;SDS011;2617;51.006;12.436;2022-07-21T18:26:21;2.40;;;2.20;;
5195;SDS011;2617;51.006;12.436;2022-07-21T18:31:23;3.03;;;1.90;;
5195;SDS011;2617;51.006;12.436;2022-07-21T18:36:26;2.50;;;2.30;;
5195;SDS011;2617;51.006;12.436;2022-07-21T18:41:29;4.50;;;2.43;;
5195;SDS011;2617;51.006;12.436;2022-07-21T18:46:33;3.50;;;2.67;;
5195;SDS011;2617;51.006;12.436;2022-07-21T18:51:36;2.80;;;2.20;;
5195;SDS011;2617;51.006;12.436;2022-07-21T18:56:38;2.70;;;2.50;;
5195;SDS011;2617;51.006;12.436;2022-07-21T19:01:42;2.77;;;2.20;;
5195;SDS011;2617;51.006;12.436;2022-07-21T19:06:45;3.00;;;2.80;;
5195;SDS011;2617;51.006;12.436;2022-07-21T19:11:47;2.80;;;2.57;;
5195;SDS011;2617;51.006;12.436;2022-07-21T19:16:49;2.87;;;2.58;;
5195;SDS011;2617;51.006;12.436;2022-07-21T19:21:51;4.85;;;2.62;;
5195;SDS011;2617;51.006;12.436;2022-07-21T19:26:54;2.95;;;2.70;;
5195;SDS011;2617;51.006;12.436;2022-07-21T19:31:56;2.92;;;2.67;;
5195;SDS011;2617;51.006;12.436;2022-07-21T19:36:59;3.45;;;3.15;;
5195;SDS011;2617;51.006;12.436;2022-07-21T19:42:02;3.80;;;2.63;;
5195;SDS011;2617;51.006;12.436;2022-07-21T19:47:05;3.53;;;2.60;;
5195;SDS011;2617;51.006;12.436;2022-07-21T19:52:07;5.13;;;2.90;;
5195;SDS011;2617;51.006;12.436;2022-07-21T19:57:11;6.90;;;2.63;;
5195;SDS011;2617;51.006;12.436;2022-07-21T20:02:14;7.47;;;2.90;;
5195;SDS011;2617;51.006;12.436;2022-07-21T20:07:16;3.20;;;2.90;;
5195;SDS011;2617;51.006;12.436;2022-07-21T20:12:19;3.33;;;3.10;;
5195;SDS011;2617;51.006;12.436;2022-07-21T20:17:21;6.50;;;3.20;;
5195;SDS011;2617;51.006;12.436;2022-07-21T20:22:23;3.60;;;3.10;;
5195;SDS011;2617;51.006;12.436;2022-07-21T20:27:26;4.07;;;2.80;;
5195;SDS011;2617;51.006;12.436;2022-07-21T20:32:28;4.10;;;3.27;;
5195;SDS011;2617;51.006;12.436;2022-07-21T20:37:31;7.62;;;3.53;;
5195;SDS011;2617;51.006;12.436;2022-07-21T20:42:33;5.53;;;3.70;;
5195;SDS011;2617;51.006;12.436;2022-07-21T20:47:36;3.90;;;3.50;;
5195;SDS011;2617;51.006;12.436;2022-07-21T20:52:38;6.13;;;3.90;;
5195;SDS011;2617;51.006;12.436;2022-07-21T20:57:40;8.70;;;3.60;;
5195;SDS011;2617;51.006;12.436;2022-07-21T21:02:43;23.03;;;4.10;;
5195;SDS011;2617;51.006;12.436;2022-07-21T21:07:46;15.47;;;5.50;;
5195;SDS011;2617;51.006;12.436;2022-07-21T21:12:48;22.80;;;4.20;;
5195;SDS011;2617;51.006;12.436;2022-07-21T21:17:51;11.63;;;4.77;;
5195;SDS011;2617;51.006;12.436;2022-07-21T21:22:54;11.32;;;4.90;;
5195;SDS011;2617;51.006;12.436;2022-07-21T21:27:56;12.18;;;4.60;;
5195;SDS011;2617;51.006;12.436;2022-07-21T21:32:59;11.55;;;4.10;;
5195;SDS011;2617;51.006;12.436;2022-07-21T21:38:02;10.90;;;3.55;;
5195;SDS011;2617;51.006;12.436;2022-07-21T21:43:04;9.37;;;4.07;;
5195;SDS011;2617;51.006;12.436;2022-07-21T21:48:07;16.80;;;4.23;;
5195;SDS011;2617;51.006;12.436;2022-07-21T21:53:09;5.10;;;3.37;;
5195;SDS011;2617;51.006;12.436;2022-07-21T21:58:12;7.07;;;4.20;;
5195;SDS011;2617;51.006;12.436;2022-07-21T22:03:15;4.64;;;3.46;;
5195;SDS011;2617;51.006;12.436;2022-07-21T22:08:19;5.23;;;3.40;;
5195;SDS011;2617;51.006;12.436;2022-07-21T22:13:21;5.90;;;3.47;;
5195;SDS011;2617;51.006;12.436;2022-07-21T22:18:23;5.43;;;3.40;;
5195;SDS011;2617;51.006;12.436;2022-07-21T22:23:26;7.78;;;4.78;;
5195;SDS011;2617;51.006;12.436;2022-07-21T22:28:29;3.87;;;3.15;;
5195;SDS011;2617;51.006;12.436;2022-07-21T22:33:31;6.27;;;3.90;;
5195;SDS011;2617;51.006;12.436;2022-07-21T22:38:34;9.33;;;3.73;;
5195;SDS011;2617;51.006;12.436;2022-07-21T22:43:37;5.23;;;3.60;;
5195;SDS011;2617;51.006;12.436;2022-07-21T22:48:40;3.70;;;3.40;;
5195;SDS011;2617;51.006;12.436;2022-07-21T22:53:42;4.40;;;3.57;;
5195;SDS011;2617;51.006;12.436;2022-07-21T22:58:45;9.13;;;3.80;;
5195;SDS011;2617;51.006;12.436;2022-07-21T23:03:47;4.50;;;3.40;;
5195;SDS011;2617;51.006;12.436;2022-07-21T23:08:50;4.70;;;3.53;;
5195;SDS011;2617;51.006;12.436;2022-07-21T23:13:52;4.07;;;3.40;;
5195;SDS011;2617;51.006;12.436;2022-07-21T23:18:54;4.07;;;3.33;;
5195;SDS011;2617;51.006;12.436;2022-07-21T23:23:57;6.00;;;3.53;;
5195;SDS011;2617;51.006;12.436;2022-07-21T23:28:59;6.45;;;2.85;;
5195;SDS011;2617;51.006;12.436;2022-07-21T23:34:02;8.60;;;3.97;;
5195;SDS011;2617;51.006;12.436;2022-07-21T23:39:04;4.00;;;3.50;;
5195;SDS011;2617;51.006;12.436;2022-07-21T23:44:07;5.03;;;3.50;;
5195;SDS011;2617;51.006;12.436;2022-07-21T23:49:09;6.77;;;3.77;;
5195;SDS011;2617;51.006;12.436;2022-07-21T23:54:11;4.43;;;4.03;;
5195;SDS011;2617;51.006;12.436;2022-07-21T23:59:15;4.13;;;3.80;;
